Time;durP1;ratioP1;P1;durP2;ratioP2;P2;SDS_P1;SDS_P2;PMS_P1;PMS_P2;Temp;Humidity;BMP_temperature;BMP_pressure;BME280_temperature;BME280_humidity;BME280_pressure;Samples;Min_cycle;Max_cycle;Signal;HPM_P1;HPM_P2
2022/09/20 00:01:17;;;;;;;12.07;4.18;;;5.10;77.00;;;;;;5026485;28;20395;-69
2022/09/20 00:03:45;;;;;;;11.85;4.00;;;4.90;77.70;;;;;;5020125;28;20208;-69
2022/09/20 00:06:15;;;;;;;14.00;3.85;;;4.90;76.70;;;;;;5020209;28;20037;-70
2022/09/20 00:08:42;;;;;;;16.60;5.07;;;5.00;76.50;;;;;;5015500;28;20037;-70
2022/09/20 00:11:14;;;;;;;8.90;3.85;;;5.00;77.00;;;;;;5021387;28;20025;-69
2022/09/20 00:13:41;;;;;;;11.32;3.80;;;5.00;76.80;;;;;;5022720;28;20067;-70
2022/09/20 00:16:10;;;;;;;10.25;3.40;;;5.00;76.90;;;;;;5019283;28;20108;-69
2022/09/20 00:18:41;;;;;;;11.98;3.45;;;4.90;77.30;;;;;;5022541;28;20400;-69
2022/09/20 00:21:11;;;;;;;7.57;3.17;;;4.80;77.20;;;;;;5026088;28;20030;-69
2022/09/20 00:23:36;;;;;;;9.23;3.67;;;4.70;77.50;;;;;;5018755;28;20057;-69
2022/09/20 00:26:04;;;;;;;7.25;3.28;;;4.60;77.70;;;;;;5024707;28;20107;-69
2022/09/20 00:28:32;;;;;;;12.75;4.65;;;4.70;76.60;;;;;;5020997;28;20766;-69
2022/09/20 00:31:00;;;;;;;13.95;4.13;;;4.70;76.90;;;;;;5016332;28;20025;-69
2022/09/20 00:35:06;;;;;;;11.88;3.90;;;4.70;76.80;;;;;;5020834;28;20037;-69
2022/09/20 00:36:12;;;;;;;14.18;4.60;;;4.70;76.90;;;;;;5054524;28;20063;-70
2022/09/20 00:38:37;;;;;;;9.70;3.35;;;4.70;76.70;;;;;;5036268;28;20029;-70
2022/09/20 00:41:03;;;;;;;19.27;4.30;;;4.70;77.20;;;;;;5034661;28;20033;-69
2022/09/20 00:43:41;;;;;;;18.67;4.18;;;4.60;77.30;;;;;;5044324;28;20349;-69
2022/09/20 00:46:27;;;;;;;10.05;4.15;;;4.60;76.80;;;;;;5042628;28;20070;-69
2022/09/20 00:49:00;;;;;;;9.10;3.78;;;4.60;77.10;;;;;;5043018;28;20032;-69
2022/09/20 00:51:30;;;;;;;10.73;3.90;;;4.60;76.80;;;;;;5040266;28;20098;-69
2022/09/20 00:54:01;;;;;;;11.18;4.13;;;4.70;76.70;;;;;;5049589;28;20422;-69
2022/09/20 00:56:31;;;;;;;15.25;4.15;;;4.50;77.80;;;;;;5036567;28;20102;-69
2022/09/20 00:59:17;;;;;;;9.20;3.40;;;4.60;76.50;;;;;;5050254;28;20029;-69
2022/09/20 01:01:51;;;;;;;13.88;3.72;;;4.70;76.40;;;;;;5046213;28;20021;-69
2022/09/20 01:04:21;;;;;;;9.27;3.28;;;4.60;77.20;;;;;;5043307;28;20028;-70
2022/09/20 01:06:55;;;;;;;9.55;3.67;;;4.50;77.50;;;;;;5050317;28;20025;-69
2022/09/20 01:09:21;;;;;;;10.43;3.72;;;4.40;77.50;;;;;;5045369;28;20056;-69
2022/09/20 01:11:48;;;;;;;12.88;3.88;;;4.40;77.20;;;;;;5050137;28;20045;-69
2022/09/20 01:14:15;;;;;;;13.30;4.07;;;4.40;76.80;;;;;;5049949;28;20025;-68
2022/09/20 01:16:41;;;;;;;13.30;3.80;;;4.40;77.20;;;;;;5033014;28;20029;-69
2022/09/20 01:19:23;;;;;;;13.23;3.80;;;4.40;76.80;;;;;;5045937;28;20029;-69
2022/09/20 01:21:49;;;;;;;10.32;3.60;;;4.40;77.00;;;;;;5048120;28;20458;-68
2022/09/20 01:24:37;;;;;;;9.05;3.60;;;4.40;76.30;;;;;;5051389;28;20032;-70
2022/09/20 01:27:40;;;;;;;9.35;3.90;;;4.50;76.90;;;;;;5035158;28;21214;-69
2022/09/20 01:30:11;;;;;;;16.10;4.50;;;4.40;76.60;;;;;;5038191;28;20112;-69
2022/09/20 01:33:22;;;;;;;14.63;4.97;;;4.60;76.30;;;;;;5026919;28;20033;-69
2022/09/20 01:35:53;;;;;;;11.23;4.13;;;4.60;76.70;;;;;;5041935;28;20138;-69
2022/09/20 01:38:47;;;;;;;15.77;5.03;;;4.50;77.10;;;;;;5019204;28;20021;-68
2022/09/20 01:41:21;;;;;;;12.00;3.47;;;4.30;77.70;;;;;;5047065;28;20419;-69
2022/09/20 01:43:51;;;;;;;8.93;3.20;;;4.20;77.20;;;;;;5031158;28;20161;-69
2022/09/20 01:46:35;;;;;;;11.02;4.45;;;4.10;77.50;;;;;;5030674;28;20029;-69
2022/09/20 01:49:22;;;;;;;15.50;4.28;;;4.20;76.40;;;;;;5049207;28;20082;-70
2022/09/20 01:52:23;;;;;;;9.85;4.00;;;4.30;76.50;;;;;;5049101;28;20318;-69
2022/09/20 01:55:25;;;;;;;15.82;4.43;;;4.30;76.60;;;;;;5047793;28;20036;-70
2022/09/20 01:58:03;;;;;;;10.02;3.80;;;4.30;76.60;;;;;;5044844;28;20342;-69
2022/09/20 02:01:02;;;;;;;9.48;3.90;;;4.30;76.60;;;;;;5051806;28;20033;-69
2022/09/20 02:03:49;;;;;;;11.10;4.25;;;4.40;76.20;;;;;;5019101;28;20033;-69
2022/09/20 02:06:38;;;;;;;13.50;3.97;;;4.40;76.70;;;;;;5051243;28;20021;-69
2022/09/20 02:09:31;;;;;;;18.52;4.50;;;4.50;76.10;;;;;;5054860;28;20025;-69
2022/09/20 02:12:13;;;;;;;10.90;4.32;;;4.60;76.30;;;;;;5045223;28;20354;-69
2022/09/20 02:14:41;;;;;;;10.18;4.05;;;4.50;76.60;;;;;;5049405;28;20025;-68
2022/09/20 02:17:15;;;;;;;7.38;3.95;;;4.60;76.10;;;;;;5047607;28;20061;-69
2022/09/20 02:20:02;;;;;;;13.40;3.70;;;4.70;76.20;;;;;;5053758;28;20036;-69
2022/09/20 02:22:49;;;;;;;13.15;4.43;;;4.80;76.40;;;;;;5048543;28;20426;-70
2022/09/20 02:25:48;;;;;;;13.73;3.90;;;4.80;76.30;;;;;;5040558;28;20033;-70
2022/09/20 02:28:41;;;;;;;10.15;4.03;;;4.70;76.40;;;;;;5048847;28;20037;-69
2022/09/20 02:31:20;;;;;;;16.35;3.85;;;4.80;76.20;;;;;;5039728;28;20097;-69
2022/09/20 02:34:03;;;;;;;14.98;4.53;;;4.90;76.30;;;;;;5052584;28;20112;-69
2022/09/20 02:37:08;;;;;;;12.00;4.40;;;4.90;76.30;;;;;;5050227;28;20040;-69
2022/09/20 02:39:52;;;;;;;11.90;4.15;;;5.00;76.20;;;;;;5048492;28;20024;-69
2022/09/20 02:42:34;;;;;;;14.30;4.20;;;5.10;76.00;;;;;;5050512;28;20016;-69
2022/09/20 02:45:21;;;;;;;11.55;4.57;;;5.10;76.10;;;;;;5046175;28;20045;-69
2022/09/20 02:47:50;;;;;;;12.88;3.90;;;5.10;76.40;;;;;;5039516;28;20025;-68
2022/09/20 02:50:39;;;;;;;7.72;3.80;;;5.00;76.50;;;;;;5044448;28;20029;-68
2022/09/20 02:53:40;;;;;;;11.45;4.72;;;5.00;76.60;;;;;;5033579;28;20024;-69
2022/09/20 02:56:28;;;;;;;9.63;3.55;;;5.00;76.50;;;;;;5017523;28;20397;-69
2022/09/20 02:59:17;;;;;;;10.77;3.60;;;4.80;77.00;;;;;;5054037;28;20024;-69
2022/09/20 03:02:22;;;;;;;17.50;4.68;;;4.80;76.50;;;;;;5057368;28;20024;-69
2022/09/20 03:04:55;;;;;;;12.68;4.38;;;4.90;76.30;;;;;;5042040;28;20053;-68
2022/09/20 03:07:30;;;;;;;17.57;4.60;;;4.90;76.50;;;;;;5050939;28;20358;-69
2022/09/20 03:10:17;;;;;;;11.63;4.70;;;4.80;76.90;;;;;;5049876;28;20071;-69
2022/09/20 03:13:14;;;;;;;10.27;3.90;;;4.60;76.90;;;;;;5044777;28;20033;-69
2022/09/20 03:16:07;;;;;;;9.50;4.03;;;4.60;76.40;;;;;;5049943;28;20048;-69
2022/09/20 03:18:56;;;;;;;12.48;4.30;;;4.50;77.20;;;;;;5049126;28;20033;-68
2022/09/20 03:21:51;;;;;;;13.73;4.22;;;4.50;76.70;;;;;;5043552;28;20033;-68
2022/09/20 03:24:54;;;;;;;11.77;4.43;;;4.60;76.30;;;;;;5044591;28;20017;-68
2022/09/20 03:27:31;;;;;;;16.27;4.80;;;4.60;76.20;;;;;;4993090;28;20038;-68
2022/09/20 03:29:58;;;;;;;16.65;4.88;;;4.70;76.50;;;;;;5051227;28;20099;-70
2022/09/20 03:32:53;;;;;;;14.32;4.97;;;4.60;76.80;;;;;;5034146;28;20029;-68
2022/09/20 03:35:37;;;;;;;18.80;5.47;;;4.60;76.60;;;;;;5052516;28;20044;-68
2022/09/20 03:38:54;;;;;;;14.80;4.33;;;4.50;76.70;;;;;;5053787;28;20049;-69
2022/09/20 03:41:38;;;;;;;18.70;4.50;;;4.50;76.30;;;;;;5028584;28;20033;-68
2022/09/20 03:44:33;;;;;;;13.40;5.05;;;4.50;76.70;;;;;;5048765;28;20016;-68
2022/09/20 03:47:18;;;;;;;14.77;4.63;;;4.50;76.60;;;;;;5041948;28;20057;-68
2022/09/20 03:50:13;;;;;;;12.80;4.40;;;4.50;76.40;;;;;;5043495;28;20059;-69
2022/09/20 03:53:10;;;;;;;11.27;5.00;;;4.50;76.70;;;;;;5049435;28;20422;-69
2022/09/20 03:55:57;;;;;;;11.85;4.68;;;4.50;76.60;;;;;;5049437;28;20029;-69
2022/09/20 03:58:33;;;;;;;14.30;4.38;;;4.50;76.70;;;;;;5051880;28;20021;-69
2022/09/20 04:01:31;;;;;;;15.18;4.30;;;4.50;76.60;;;;;;5047494;28;20025;-68
2022/09/20 04:04:18;;;;;;;12.82;4.10;;;4.50;76.70;;;;;;5048287;28;20024;-68
2022/09/20 04:07:04;;;;;;;12.93;4.78;;;4.50;76.40;;;;;;5051585;28;20029;-69
2022/09/20 04:10:00;;;;;;;14.65;3.70;;;4.50;76.90;;;;;;5047335;28;20040;-68
2022/09/20 04:12:44;;;;;;;16.42;5.43;;;4.50;76.80;;;;;;5052649;28;20029;-69
2022/09/20 04:15:32;;;;;;;13.07;4.90;;;4.50;76.70;;;;;;5048894;28;20021;-69
2022/09/20 04:18:18;;;;;;;15.05;4.30;;;4.50;76.60;;;;;;5045557;28;20029;-68
2022/09/20 04:20:54;;;;;;;11.45;4.93;;;4.50;76.90;;;;;;5048555;28;20473;-68
2022/09/20 04:23:30;;;;;;;10.02;4.57;;;4.40;77.00;;;;;;5044635;28;20414;-69
2022/09/20 04:25:59;;;;;;;12.88;4.93;;;4.50;76.40;;;;;;5037380;28;20425;-69
2022/09/20 04:28:47;;;;;;;10.13;4.80;;;4.50;76.60;;;;;;5033101;28;20116;-69
2022/09/20 04:31:41;;;;;;;15.20;5.53;;;4.60;76.40;;;;;;5028418;28;20407;-69
2022/09/20 04:34:21;;;;;;;15.52;4.60;;;4.60;76.40;;;;;;5050154;28;20040;-69
2022/09/20 04:36:55;;;;;;;11.02;4.45;;;4.60;76.30;;;;;;5046308;28;20033;-69
2022/09/20 04:39:36;;;;;;;14.85;4.72;;;4.60;76.50;;;;;;5046206;28;20021;-69
2022/09/20 04:42:27;;;;;;;11.90;4.57;;;4.60;76.50;;;;;;5045809;28;20311;-68
2022/09/20 04:45:11;;;;;;;14.27;4.68;;;4.70;76.40;;;;;;5044109;28;20013;-69
2022/09/20 04:47:41;;;;;;;;;;;4.70;76.40;;;;;;5050352;28;20025;-69
2022/09/20 04:50:22;;;;;;;12.23;4.63;;;4.50;77.20;;;;;;5044447;28;20195;-68
2022/09/20 04:53:25;;;;;;;15.38;5.03;;;4.40;77.20;;;;;;5044483;28;20031;-69
2022/09/20 04:56:00;;;;;;;13.55;4.57;;;4.30;77.10;;;;;;5024777;28;20111;-68
2022/09/20 04:58:35;;;;;;;14.90;5.20;;;4.30;76.80;;;;;;5054907;28;20308;-69
2022/09/20 05:01:16;;;;;;;7.75;3.60;;;4.30;76.60;;;;;;5052198;28;20017;-69
2022/09/20 05:04:00;;;;;;;15.18;5.25;;;4.40;76.70;;;;;;5037828;28;20028;-69
2022/09/20 05:06:26;;;;;;;;;;;4.40;76.50;;;;;;5043204;28;20086;-69
2022/09/20 05:09:21;;;;;;;11.73;5.30;;;4.40;76.40;;;;;;5041950;28;20011;-68
2022/09/20 05:12:02;;;;;;;13.77;5.05;;;4.50;76.10;;;;;;5048035;28;20104;-68
2022/09/20 05:14:33;;;;;;;16.85;4.55;;;4.70;76.00;;;;;;5052212;28;20033;-68
2022/09/20 05:17:36;;;;;;;10.98;4.93;;;4.90;76.00;;;;;;5055116;28;20033;-69
2022/09/20 05:20:26;;;;;;;11.23;5.10;;;5.00;76.00;;;;;;5049444;28;20017;-68
2022/09/20 05:23:28;;;;;;;17.27;6.03;;;5.10;76.00;;;;;;5044165;28;20032;-69
2022/09/20 05:26:24;;;;;;;12.82;6.05;;;5.20;76.10;;;;;;5041625;28;20028;-69
2022/09/20 05:28:56;;;;;;;24.33;14.15;;;5.30;76.00;;;;;;5050834;28;20079;-69
2022/09/20 05:31:34;;;;;;;17.00;11.05;;;5.40;76.00;;;;;;5053083;28;20103;-69
2022/09/20 05:34:09;;;;;;;16.83;6.00;;;5.40;76.00;;;;;;5048365;28;20418;-68
2022/09/20 05:37:39;;;;;;;9.32;5.57;;;5.40;76.20;;;;;;5027151;28;20025;-69
2022/09/20 05:40:38;;;;;;;12.70;5.80;;;5.40;75.90;;;;;;4945772;28;20039;-68
2022/09/20 05:43:10;;;;;;;12.85;5.95;;;5.50;75.90;;;;;;5051237;28;20017;-68
2022/09/20 05:45:57;;;;;;;15.63;5.15;;;5.60;75.90;;;;;;5051307;28;20025;-69
2022/09/20 05:48:30;;;;;;;8.55;3.78;;;5.60;76.00;;;;;;5059386;28;20266;-69
2022/09/20 05:51:17;;;;;;;9.90;5.38;;;5.80;75.60;;;;;;5058205;28;20325;-69
2022/09/20 05:54:16;;;;;;;13.27;5.78;;;5.90;75.80;;;;;;5054037;28;20032;-69
2022/09/20 05:56:56;;;;;;;9.20;5.38;;;6.00;75.90;;;;;;5057566;28;20033;-69
2022/09/20 06:00:03;;;;;;;12.25;5.15;;;6.10;75.80;;;;;;5058480;28;20025;-69
2022/09/20 06:02:47;;;;;;;11.68;5.70;;;6.20;75.70;;;;;;5009556;28;20127;-69
2022/09/20 06:06:03;;;;;;;19.98;8.38;;;6.10;76.20;;;;;;5042232;28;20021;-69
2022/09/20 06:08:34;;;;;;;;;;;6.20;75.90;;;;;;4924286;29;20039;-68
2022/09/20 06:11:23;;;;;;;11.63;5.63;;;6.20;75.90;;;;;;4938183;29;20320;-68
2022/09/20 06:14:26;;;;;;;12.57;7.20;;;6.40;75.50;;;;;;5017530;28;20037;-68
2022/09/20 06:16:52;;;;;;;16.48;8.82;;;6.40;75.60;;;;;;5053601;28;20036;-68
2022/09/20 06:19:28;;;;;;;13.80;8.45;;;6.50;75.80;;;;;;5049796;28;20013;-67
2022/09/20 06:22:00;;;;;;;16.30;7.10;;;6.60;75.90;;;;;;5044857;28;20108;-68
2022/09/20 06:25:01;;;;;;;15.20;7.05;;;6.60;75.80;;;;;;5022613;28;20026;-69
2022/09/20 06:27:32;;;;;;;15.07;6.78;;;6.70;75.90;;;;;;4996544;28;20058;-69
2022/09/20 06:30:02;;;;;;;13.13;6.20;;;6.70;75.80;;;;;;4994009;28;20045;-69
2022/09/20 06:32:28;;;;;;;19.75;11.32;;;6.80;75.60;;;;;;4981541;28;20324;-70
2022/09/20 06:34:54;;;;;;;21.65;9.98;;;6.80;76.00;;;;;;5002662;28;20049;-70
2022/09/20 06:43:31;;;;;;;15.05;6.45;;;7.00;75.60;;;;;;5051800;28;20060;-70
2022/09/20 06:45:57;;;;;;;13.05;7.25;;;7.10;75.70;;;;;;5057815;28;20069;-69
2022/09/20 06:48:24;;;;;;;13.85;8.13;;;7.20;75.50;;;;;;5058257;28;20033;-69
2022/09/20 06:50:51;;;;;;;11.52;6.20;;;7.30;75.60;;;;;;5058312;28;20099;-69
2022/09/20 06:53:29;;;;;;;10.75;5.13;;;7.30;75.80;;;;;;5037251;28;20030;-70
2022/09/20 06:55:56;;;;;;;16.98;7.85;;;7.30;75.60;;;;;;5037074;28;20045;-70
2022/09/20 06:58:22;;;;;;;11.68;4.72;;;7.40;75.30;;;;;;5056975;28;20029;-69
2022/09/20 07:00:48;;;;;;;13.48;5.45;;;7.50;75.40;;;;;;5058282;28;20104;-70
2022/09/20 07:03:13;;;;;;;15.13;5.10;;;7.30;75.90;;;;;;5057994;28;20021;-70
2022/09/20 07:05:39;;;;;;;10.15;5.10;;;7.40;75.60;;;;;;5058099;28;20068;-70
2022/09/20 07:08:05;;;;;;;13.10;5.20;;;7.50;75.60;;;;;;5058072;28;20048;-70
2022/09/20 07:10:31;;;;;;;12.68;5.85;;;7.70;75.50;;;;;;5056901;28;20025;-70
2022/09/20 07:12:59;;;;;;;16.20;5.68;;;7.80;75.20;;;;;;5057704;28;20398;-70
2022/09/20 07:15:30;;;;;;;16.55;5.45;;;8.00;75.10;;;;;;5057009;28;20035;-70
2022/09/20 07:17:56;;;;;;;13.55;5.38;;;8.00;75.70;;;;;;5057760;28;20029;-70
2022/09/20 07:20:22;;;;;;;13.35;4.72;;;8.00;75.80;;;;;;5057881;28;20025;-70
2022/09/20 07:22:48;;;;;;;11.85;4.65;;;8.00;76.10;;;;;;5057838;28;20025;-70
2022/09/20 07:25:14;;;;;;;11.73;4.03;;;7.90;76.40;;;;;;5038256;28;20047;-70
2022/09/20 07:27:39;;;;;;;12.88;5.93;;;8.00;77.30;;;;;;5057636;28;20112;-70
2022/09/20 07:30:09;;;;;;;11.80;5.22;;;8.10;77.80;;;;;;5057554;28;20029;-70
2022/09/20 07:32:35;;;;;;;13.45;5.10;;;8.10;78.30;;;;;;5057632;28;20418;-70
2022/09/20 07:35:00;;;;;;;12.02;5.03;;;8.30;78.00;;;;;;5039629;28;20053;-70
2022/09/20 07:37:29;;;;;;;12.57;5.20;;;8.50;79.20;;;;;;5057530;28;20041;-70
2022/09/20 07:39:55;;;;;;;13.27;4.68;;;8.40;84.00;;;;;;5055037;28;20021;-70
2022/09/20 07:42:20;;;;;;;13.77;4.97;;;8.50;83.70;;;;;;5057510;28;20310;-70
2022/09/20 07:44:46;;;;;;;12.07;3.65;;;8.50;86.40;;;;;;5057295;28;20021;-70
2022/09/20 07:47:13;;;;;;;9.50;4.05;;;8.70;85.00;;;;;;5057223;28;20044;-70
2022/09/20 07:49:39;;;;;;;14.85;4.70;;;9.20;83.30;;;;;;5057498;28;20025;-70
2022/09/20 07:52:06;;;;;;;11.32;4.13;;;9.70;81.90;;;;;;5056636;28;20052;-69
2022/09/20 07:54:32;;;;;;;16.13;4.53;;;10.10;86.40;;;;;;5054843;28;20017;-70
2022/09/20 07:56:58;;;;;;;11.98;4.85;;;10.10;90.70;;;;;;5057111;28;20040;-70
2022/09/20 07:59:24;;;;;;;14.57;5.60;;;10.10;95.00;;;;;;5056906;28;20314;-70
2022/09/20 08:01:50;;;;;;;12.30;4.65;;;10.00;95.40;;;;;;5057087;28;20151;-70
2022/09/20 08:04:16;;;;;;;14.35;6.30;;;10.10;97.40;;;;;;5055365;28;20446;-70
2022/09/20 08:06:44;;;;;;;17.10;7.55;;;10.00;98.00;;;;;;5057048;28;20032;-70
2022/09/20 08:09:11;;;;;;;13.88;5.93;;;10.00;98.00;;;;;;5038026;28;20025;-70
2022/09/20 08:11:38;;;;;;;15.93;6.57;;;10.10;97.60;;;;;;5056779;28;20055;-69
2022/09/20 08:14:04;;;;;;;12.60;6.57;;;10.40;97.30;;;;;;5056896;28;20021;-70
2022/09/20 08:16:31;;;;;;;14.70;5.88;;;10.70;98.00;;;;;;5056475;28;20086;-70
2022/09/20 08:18:59;;;;;;;17.33;6.53;;;11.00;98.00;;;;;;5056021;28;20021;-69
2022/09/20 08:21:31;;;;;;;14.13;6.22;;;11.00;98.00;;;;;;5056758;28;20029;-70
2022/09/20 08:23:58;;;;;;;17.95;5.72;;;11.30;98.00;;;;;;5054421;28;20303;-69
2022/09/20 08:26:25;;;;;;;18.20;6.47;;;12.40;98.00;;;;;;5053339;28;20032;-69
2022/09/20 08:28:54;;;;;;;13.23;5.88;;;12.50;98.00;;;;;;5055871;28;20029;-70
2022/09/20 08:31:22;;;;;;;12.30;4.72;;;11.80;98.00;;;;;;5044049;28;20025;-69
2022/09/20 08:33:49;;;;;;;9.95;4.65;;;11.70;98.00;;;;;;5036483;28;20362;-70
2022/09/20 08:36:18;;;;;;;14.43;5.53;;;11.60;98.00;;;;;;5056277;28;20036;-70
2022/09/20 08:38:43;;;;;;;17.58;5.40;;;11.40;98.00;;;;;;5053039;28;20029;-70
2022/09/20 08:41:29;;;;;;;13.13;4.90;;;11.00;98.00;;;;;;5055195;28;20033;-69
2022/09/20 08:44:01;;;;;;;13.85;4.97;;;10.90;98.00;;;;;;5054887;28;20025;-69
2022/09/20 08:46:32;;;;;;;14.75;4.63;;;10.70;98.00;;;;;;5052362;28;20044;-69
2022/09/20 08:49:01;;;;;;;10.88;4.07;;;10.80;98.00;;;;;;5054498;28;20024;-70
2022/09/20 08:51:32;;;;;;;10.93;4.15;;;11.10;98.00;;;;;;5027895;28;20040;-69
2022/09/20 08:53:58;;;;;;;12.13;4.18;;;11.50;98.00;;;;;;5047774;28;20013;-69
2022/09/20 08:56:28;;;;;;;9.85;3.58;;;11.50;98.00;;;;;;5051219;28;20025;-70
2022/09/20 08:58:56;;;;;;;11.60;3.45;;;11.50;97.40;;;;;;5047418;28;20437;-69
2022/09/20 09:01:24;;;;;;;8.98;3.05;;;11.90;97.10;;;;;;5040441;28;20104;-69
2022/09/20 09:03:56;;;;;;;11.02;2.42;;;13.40;95.70;;;;;;5049288;28;20364;-69
2022/09/20 09:06:23;;;;;;;12.32;3.35;;;14.90;87.10;;;;;;5053542;28;20028;-69
2022/09/20 09:08:52;;;;;;;12.88;2.47;;;14.60;87.30;;;;;;5054258;28;20035;-69
2022/09/20 09:11:22;;;;;;;10.90;2.55;;;15.30;85.30;;;;;;5052213;28;20421;-69
2022/09/20 09:16:56;;;;;;;9.70;2.20;;;16.90;79.40;;;;;;5052028;28;20138;-69
2022/09/20 09:19:29;;;;;;;7.30;2.15;;;16.70;81.90;;;;;;5055877;28;20041;-71
2022/09/20 09:22:03;;;;;;;8.00;1.90;;;17.00;77.80;;;;;;5054225;28;20020;-71
2022/09/20 09:24:32;;;;;;;11.10;2.00;;;16.00;80.60;;;;;;5053853;28;20017;-70
2022/09/20 09:27:22;;;;;;;8.95;2.08;;;15.20;80.50;;;;;;5036425;28;20163;-70
2022/09/20 09:29:57;;;;;;;9.23;2.20;;;15.10;83.70;;;;;;5036423;28;20032;-69
2022/09/20 09:32:31;;;;;;;7.80;2.03;;;15.90;81.30;;;;;;5054487;28;20036;-69
2022/09/20 09:35:25;;;;;;;11.48;2.33;;;16.60;78.60;;;;;;5054088;28;20052;-69
2022/09/20 09:38:00;;;;;;;8.73;2.05;;;18.00;75.50;;;;;;5051837;28;20029;-69
2022/09/20 09:40:29;;;;;;;7.43;1.83;;;18.30;73.30;;;;;;5051617;28;20017;-69
2022/09/20 09:42:57;;;;;;;7.65;2.00;;;18.30;72.90;;;;;;5054837;28;20100;-69
2022/09/20 09:45:40;;;;;;;8.65;2.22;;;17.70;73.40;;;;;;5052640;28;20380;-68
2022/09/20 09:48:21;;;;;;;8.15;1.83;;;17.40;77.20;;;;;;5053811;28;20021;-69
2022/09/20 09:50:47;;;;;;;6.00;1.63;;;18.10;76.10;;;;;;5055499;28;20025;-69
2022/09/20 09:53:15;;;;;;;8.48;1.98;;;18.10;73.00;;;;;;5054861;28;20029;-68
2022/09/20 09:56:00;;;;;;;9.07;2.10;;;17.60;75.80;;;;;;5036673;28;20024;-69
2022/09/20 09:58:59;;;;;;;8.15;1.85;;;18.20;74.60;;;;;;5033526;28;20257;-69
2022/09/20 10:01:38;;;;;;;11.77;2.22;;;17.20;74.20;;;;;;5051241;28;20033;-73
2022/09/20 10:04:21;;;;;;;28.98;4.35;;;16.90;76.80;;;;;;5055350;28;20021;-68
2022/09/20 10:06:52;;;;;;;13.18;2.45;;;17.70;74.60;;;;;;5034679;28;20044;-69
2022/09/20 10:09:49;;;;;;;12.93;2.55;;;16.40;74.80;;;;;;5047131;28;20030;-69
2022/09/20 10:12:20;;;;;;;6.15;1.80;;;14.70;79.60;;;;;;5038126;28;20033;-69
2022/09/20 10:15:22;;;;;;;8.15;2.08;;;13.80;84.30;;;;;;5037880;28;20091;-69
2022/09/20 10:17:57;;;;;;;23.88;4.18;;;13.80;87.10;;;;;;5022616;28;20049;-68
2022/09/20 10:20:26;;;;;;;15.75;3.10;;;15.00;82.70;;;;;;5041423;28;20021;-69
2022/09/20 10:23:07;;;;;;;21.00;2.88;;;16.30;79.00;;;;;;5056251;28;20025;-69
2022/09/20 10:25:51;;;;;;;12.63;3.13;;;17.20;73.40;;;;;;5039352;28;20021;-69
2022/09/20 10:28:49;;;;;;;7.03;1.80;;;17.90;73.00;;;;;;5049072;28;20024;-69
2022/09/20 10:31:34;;;;;;;6.90;1.88;;;18.40;70.20;;;;;;5048750;28;20033;-69
2022/09/20 10:34:22;;;;;;;6.10;1.40;;;17.70;67.30;;;;;;5056968;28;20060;-69
2022/09/20 10:36:52;;;;;;;6.28;1.77;;;16.90;67.90;;;;;;5055787;28;20924;-69
2022/09/20 10:39:32;;;;;;;5.57;1.92;;;15.80;71.50;;;;;;5050494;28;20024;-69
2022/09/20 10:45:27;;;;;;;;;;;14.80;77.60;;;;;;5055240;28;20373;-69
2022/09/20 10:47:59;;;;;;;7.57;2.28;;;14.70;76.30;;;;;;5056729;28;19951;-69
2022/09/20 10:50:34;;;;;;;8.95;2.78;;;14.60;76.70;;;;;;5058516;28;20341;-69
2022/09/20 10:53:15;;;;;;;20.55;3.63;;;14.40;79.10;;;;;;5055363;28;20025;-69
2022/09/20 10:55:47;;;;;;;22.85;4.15;;;14.40;78.70;;;;;;5039379;28;20469;-69
2022/09/20 10:58:16;;;;;;;11.80;2.05;;;14.80;78.40;;;;;;5050151;28;20045;-69
2022/09/20 11:01:12;;;;;;;9.85;2.25;;;15.50;77.70;;;;;;5052611;28;20032;-69
2022/09/20 11:03:57;;;;;;;8.55;2.10;;;16.90;76.30;;;;;;5051741;28;20025;-69
2022/09/20 11:06:28;;;;;;;;;;;17.40;73.80;;;;;;5039108;28;20032;-69
2022/09/20 11:08:58;;;;;;;7.20;2.03;;;16.80;74.40;;;;;;5056796;28;19909;-69
2022/09/20 11:11:40;;;;;;;7.60;1.80;;;15.90;74.90;;;;;;5056125;28;20017;-69
2022/09/20 11:14:23;;;;;;;13.23;2.33;;;14.90;78.40;;;;;;5046955;28;20029;-69
2022/09/20 11:16:58;;;;;;;10.00;2.20;;;14.40;80.50;;;;;;5056362;28;20089;-69
2022/09/20 11:19:46;;;;;;;8.65;2.03;;;14.20;83.30;;;;;;5037850;28;20022;-69
2022/09/20 11:22:19;;;;;;;8.55;2.47;;;14.30;81.60;;;;;;5043611;28;20136;-69
2022/09/20 11:25:02;;;;;;;8.40;2.17;;;14.20;81.60;;;;;;5055451;28;20437;-69
2022/09/20 11:27:36;;;;;;;7.15;2.00;;;14.60;81.10;;;;;;5053749;28;20171;-69
2022/09/20 11:30:13;;;;;;;9.55;3.10;;;15.20;79.30;;;;;;5057776;28;20396;-69
2022/09/20 11:32:45;;;;;;;6.50;1.73;;;15.50;78.80;;;;;;5053250;28;20437;-68
2022/09/20 11:35:10;;;;;;;10.77;2.53;;;15.80;76.80;;;;;;5040287;28;20060;-68
2022/09/20 11:38:20;;;;;;;9.38;1.90;;;16.00;76.30;;;;;;5055771;28;20433;-69
2022/09/20 11:40:55;;;;;;;8.70;2.10;;;16.10;73.20;;;;;;5041902;28;20059;-69
2022/09/20 11:43:29;;;;;;;7.95;2.30;;;17.00;72.30;;;;;;5046340;28;20092;-69
2022/09/20 11:45:57;;;;;;;;;;;17.30;71.30;;;;;;5049685;28;20427;-69
2022/09/20 11:48:44;;;;;;;8.07;2.08;;;17.20;71.80;;;;;;5055680;28;19912;-69
2022/09/20 11:51:31;;;;;;;7.38;2.08;;;16.40;71.60;;;;;;5057207;28;20032;-69
2022/09/20 11:54:54;;;;;;;7.70;1.60;;;15.80;72.80;;;;;;5055143;28;20029;-68
2022/09/20 11:57:21;;;;;;;9.65;2.33;;;15.10;74.90;;;;;;4972933;28;20042;-69
2022/09/20 12:00:01;;;;;;;10.00;2.10;;;15.20;74.80;;;;;;5035555;28;20451;-69
2022/09/20 12:02:43;;;;;;;9.25;2.00;;;15.40;76.20;;;;;;5048222;28;20025;-68
2022/09/20 12:05:36;;;;;;;8.52;2.28;;;15.60;74.60;;;;;;5052930;28;20364;-68
2022/09/20 12:08:06;;;;;;;12.48;2.58;;;15.90;76.10;;;;;;5036832;28;20021;-68
2022/09/20 12:10:36;;;;;;;8.73;2.13;;;16.00;75.00;;;;;;5049119;28;20029;-68
2022/09/20 12:13:23;;;;;;;8.35;3.20;;;16.50;73.10;;;;;;5051318;28;20103;-68
2022/09/20 12:16:20;;;;;;;5.82;1.45;;;16.90;71.40;;;;;;5051459;28;20032;-70
2022/09/20 12:18:55;;;;;;;9.68;1.70;;;16.90;71.10;;;;;;5052959;28;20033;-70
2022/09/20 12:21:23;;;;;;;10.00;2.38;;;17.10;71.90;;;;;;5056658;28;20056;-70
2022/09/20 12:23:52;;;;;;;8.98;2.00;;;17.00;70.70;;;;;;5054602;28;20075;-69
2022/09/20 12:26:19;;;;;;;8.40;1.67;;;16.40;70.50;;;;;;5051631;28;20112;-69
2022/09/20 12:28:56;;;;;;;8.10;1.90;;;16.30;72.60;;;;;;5052568;28;20033;-68
2022/09/20 12:31:27;;;;;;;4.78;1.45;;;16.50;72.30;;;;;;5054721;28;20113;-69
2022/09/20 12:34:14;;;;;;;6.53;1.98;;;16.40;71.20;;;;;;5031401;28;20485;-69
2022/09/20 12:36:45;;;;;;;7.30;1.92;;;16.10;72.50;;;;;;5034835;28;20037;-68
2022/09/20 12:39:21;;;;;;;7.60;2.00;;;16.10;73.50;;;;;;5046596;28;20044;-67
2022/09/20 12:42:12;;;;;;;8.75;2.00;;;16.30;72.20;;;;;;5046889;28;20092;-67
2022/09/20 12:44:40;;;;;;;5.47;1.50;;;16.20;71.70;;;;;;5041791;28;20037;-68
2022/09/20 12:47:09;;;;;;;7.07;1.60;;;16.50;73.00;;;;;;5011489;28;20052;-69
2022/09/20 12:52:49;;;;;;;7.32;1.58;;;16.60;70.40;;;;;;5042212;28;20112;-68
2022/09/20 12:55:41;;;;;;;7.07;1.70;;;16.80;71.20;;;;;;5051379;28;20037;-69
2022/09/20 12:58:13;;;;;;;4.95;1.50;;;16.80;70.20;;;;;;5021945;28;20037;-69
2022/09/20 13:01:10;;;;;;;7.80;1.60;;;16.40;66.30;;;;;;5050749;28;20021;-67
2022/09/20 13:03:56;;;;;;;8.00;2.83;;;16.00;68.70;;;;;;5051901;28;20043;-68
2022/09/20 13:06:24;;;;;;;10.18;4.50;;;15.80;69.70;;;;;;5052251;28;20025;-67
2022/09/20 13:09:04;;;;;;;5.60;1.90;;;15.70;70.70;;;;;;5052032;28;20025;-69
2022/09/20 13:11:53;;;;;;;5.00;1.52;;;15.30;71.50;;;;;;5023350;28;20025;-69
2022/09/20 13:14:25;;;;;;;6.05;1.50;;;15.50;71.20;;;;;;5048395;28;20032;-68
2022/09/20 13:17:28;;;;;;;9.07;2.70;;;15.90;71.00;;;;;;5053786;28;20033;-68
2022/09/20 13:19:55;;;;;;;9.32;1.90;;;15.70;71.10;;;;;;5046670;28;20041;-68
2022/09/20 13:22:42;;;;;;;5.40;1.73;;;15.60;71.10;;;;;;5037498;28;20025;-68
2022/09/20 13:25:19;;;;;;;5.65;1.73;;;15.50;72.10;;;;;;5043077;28;20029;-70
2022/09/20 13:27:57;;;;;;;5.88;1.60;;;15.60;72.30;;;;;;5035839;28;20064;-69
2022/09/20 13:30:31;;;;;;;6.78;1.30;;;15.90;70.50;;;;;;5012311;28;20029;-68
2022/09/20 13:33:13;;;;;;;7.25;1.63;;;16.00;71.80;;;;;;5033545;28;20054;-68
2022/09/20 13:35:40;;;;;;;5.97;1.63;;;16.70;70.80;;;;;;5032857;28;20037;-68
2022/09/20 13:38:07;;;;;;;7.10;1.60;;;17.70;67.90;;;;;;5018259;28;20029;-68
2022/09/20 13:40:46;;;;;;;7.00;1.75;;;17.60;67.10;;;;;;5037634;28;20060;-68
2022/09/20 13:43:36;;;;;;;5.75;1.30;;;17.20;68.60;;;;;;5036452;28;20036;-68
2022/09/20 13:46:15;;;;;;;8.40;2.10;;;17.50;67.60;;;;;;5039825;28;20052;-68
2022/09/20 13:48:41;;;;;;;5.70;1.58;;;17.00;67.20;;;;;;5035794;28;20033;-67
2022/09/20 13:51:23;;;;;;;4.95;1.45;;;16.40;68.30;;;;;;5042091;28;20505;-68
2022/09/20 13:53:49;;;;;;;6.07;1.77;;;16.50;69.00;;;;;;5057444;28;20445;-68
2022/09/20 13:56:28;;;;;;;6.65;2.25;;;16.60;68.20;;;;;;5050869;28;20036;-68
2022/09/20 13:58:59;;;;;;;4.85;1.67;;;16.70;69.30;;;;;;5050408;28;20094;-69
2022/09/20 14:01:31;;;;;;;6.60;1.60;;;16.90;69.30;;;;;;5044562;28;20502;-68